アピア の空港の天気 - METARとTAF

ファレオロ国際空港(サモア) ( NSFA / APW ) - サモア アピア
飛行場実況気象(Metar)
観測時間05/29 00:00 WSST (05/28 11:00 UTC)
風向・風速東 2m/s
視程10km以上
天気現象
少しの雲 雲底高度 700m
全天の4割程度の雲 雲底高度 5490m
気温25℃
湿度94%
気圧1013hPa
METARNSFA 281100Z 10004KT 9999 FEW023 SCT180 25/24 Q1013
過去の天気等 Google飛行場航空写真 Wunderground天気予報

過去48時間のMETAR

飛行場予報(TAF)
発表時間: 5/29 00:12 WSST (5/28 11:12 UTC)
予報対象時間: 29日1時 WSST ~ 30日1時 WSST
風向・風速東 3m/s
視程10km以上
全天の4割程度の雲 雲底高度 670m
全天の4割程度の雲 雲底高度 3050m
TAF NSFA 281112Z 2812/2912 10005KT 9999 SCT022 SCT100